createdAt,value
2023-04-02T00:05:51.030Z,3.90
2023-04-02T00:20:50.160Z,4.10
2023-04-02T00:35:50.101Z,3.60
2023-04-02T00:50:49.956Z,3.90
2023-04-02T01:05:49.684Z,3.40
2023-04-02T01:20:49.529Z,3.10
2023-04-02T01:35:49.455Z,2.50
2023-04-02T01:50:49.262Z,2.70
2023-04-02T02:05:49.038Z,2.60
2023-04-02T02:20:48.887Z,2.60
2023-04-02T02:35:48.749Z,2.40
2023-04-02T02:50:48.578Z,2.60
2023-04-02T03:05:48.419Z,2.50
2023-04-02T03:20:48.257Z,2.50
2023-04-02T03:35:48.127Z,2.40
2023-04-02T03:50:47.945Z,1.90
2023-04-02T04:05:47.778Z,1.80
2023-04-02T04:20:47.634Z,1.70
2023-04-02T04:35:47.502Z,1.70
2023-04-02T04:50:47.311Z,2.10
2023-04-02T05:05:47.199Z,2.00
2023-04-02T05:20:47.137Z,1.80
2023-04-02T05:35:46.878Z,1.80
2023-04-02T05:50:46.727Z,1.70
2023-04-02T06:05:46.578Z,1.70
2023-04-02T06:20:46.421Z,1.60
2023-04-02T06:35:46.293Z,1.20
2023-04-02T06:50:46.146Z,1.00
2023-04-02T07:05:45.952Z,1.20
2023-04-02T07:20:45.784Z,1.10
2023-04-02T07:35:45.656Z,1.20
2023-04-02T07:50:45.591Z,1.40
2023-04-02T08:05:45.289Z,1.10
2023-04-02T08:20:45.155Z,1.00
2023-04-02T08:35:45.118Z,1.40
2023-04-02T08:50:44.854Z,1.50
2023-04-02T09:05:44.643Z,1.60
2023-04-02T09:20:56.154Z,1.10
2023-04-02T09:35:49.190Z,1.30
2023-04-02T09:50:44.180Z,1.20
2023-04-02T10:05:44.274Z,1.20
2023-04-02T10:20:51.073Z,0.80
2023-04-02T10:35:43.712Z,1.40
2023-04-02T10:50:43.629Z,1.20
2023-04-02T11:05:43.486Z,1.10
2023-04-02T11:20:43.326Z,1.10
2023-04-02T11:35:43.097Z,1.30
2023-04-02T11:50:42.921Z,1.60
2023-04-02T12:05:42.885Z,1.40
2023-04-02T12:20:42.588Z,1.40
2023-04-02T12:35:42.498Z,1.40
2023-04-02T12:50:42.299Z,0.90
2023-04-02T13:05:42.136Z,1.10
2023-04-02T13:20:42.895Z,1.10
2023-04-02T13:35:42.326Z,0.80
2023-04-02T13:50:43.404Z,0.80
2023-04-02T14:05:41.491Z,0.90
2023-04-02T14:20:41.384Z,0.80
2023-04-02T14:35:41.205Z,0.80
2023-04-02T14:50:41.088Z,0.80
2023-04-02T15:05:40.810Z,1.00
2023-04-02T15:20:40.657Z,0.90
2023-04-02T15:35:40.964Z,0.70
2023-04-02T15:50:42.053Z,0.80
2023-04-02T16:05:40.211Z,0.70
2023-04-02T16:20:40.066Z,0.70
2023-04-02T16:35:42.438Z,0.90
2023-04-02T16:50:39.728Z,0.90
2023-04-02T17:05:39.579Z,0.70
2023-04-02T17:20:39.414Z,0.80
2023-04-02T17:35:39.306Z,1.00
2023-04-02T17:50:39.342Z,0.90
2023-04-02T18:05:39.038Z,0.80
2023-04-02T18:20:38.979Z,1.00
2023-04-02T18:35:38.665Z,1.20
2023-04-02T18:50:38.716Z,1.50
2023-04-02T19:05:38.693Z,1.10
2023-04-02T19:20:38.452Z,1.00
2023-04-02T19:35:38.385Z,1.20
2023-04-02T19:50:38.804Z,1.70
2023-04-02T20:05:38.172Z,1.20
2023-04-02T20:20:37.824Z,1.10
2023-04-02T20:35:37.469Z,1.30
2023-04-02T20:50:37.493Z,1.10
2023-04-02T21:05:37.182Z,1.20
2023-04-02T21:20:36.872Z,1.30
2023-04-02T21:35:36.921Z,1.30
2023-04-02T21:50:36.747Z,1.30
2023-04-02T22:05:36.503Z,1.20
2023-04-02T22:20:36.408Z,1.20
2023-04-02T22:35:36.124Z,1.10
2023-04-02T22:50:36.201Z,1.80
2023-04-02T23:05:35.764Z,1.10
2023-04-02T23:20:35.837Z,1.30
2023-04-02T23:35:35.471Z,1.30
2023-04-02T23:50:35.511Z,1.20
